Outage due to equipment failure. Site will not be transmitting information for the foreseeable future.

Latest Weather Observations for Rundle Island

IDQ60801

Issued at 9:32 pm EST Saturday 18 April 2015 (issued every 30 minutes, with the page automatically refreshed every 10 minutes)

About weather observations | Map of weather stations | Latest weather observations for QLD | Other Formats
Station Details ID: 039322 Name: RUNDLE ISLAND Lat: -23.53 Lon: 151.28 Height: 19.8 m
Data from the previous 72 hours. | See also: Recent months at Rundle Island
Date/Time
EST
Temp
°C
App
Temp
°C
Dew
Point
Rel
Hum
%
Delta-T
°C
Wind Press
QNH
hPa
Press
MSL
hPa
Rain
since 9 am
mm
Dir
 
Spd
km/h
Gust
km/h
Spd
kts
Gust
kts
18/09:30pm 24.6 - - - - E 33 43 18 23 1018.7 1018.6 -
18/09:00pm 25.3 - - - - E 24 28 13 15 1018.7 1018.6 -
18/08:30pm 25.1 - - - - E 26 35 14 19 1018.7 1018.6 -
18/08:19pm 25.0 - - - - E 26 35 14 19 1018.6 1018.5 -
18/08:00pm 24.8 - - - - ESE 13 17 7 9 1018.7 1018.6 -
18/07:30pm 23.8 - - - - SSE 13 15 7 8 1018.4 1018.3 -
18/07:00pm 23.6 - - - - ESE 30 35 16 19 1017.9 1017.8 -
18/06:30pm 24.3 - - - - ESE 28 32 15 17 1017.9 1017.8 -
18/06:00pm 22.7 - - - - E 17 28 9 15 1017.9 1017.8 -
18/05:37pm 23.9 - - - - E 26 43 14 23 1017.5 1017.4 -
18/05:30pm 24.9 - - - - ENE 15 22 8 12 1017.6 1017.5 -
18/05:00pm 25.5 - - - - E 20 24 11 13 1017.4 1017.3 -
18/04:30pm 25.2 - - - - E 30 37 16 20 1017.2 1017.1 -
18/04:00pm 25.9 - - - - ESE 22 26 12 14 1017.2 1017.1 -
18/03:30pm 26.1 - - - - E 20 22 11 12 1017.2 1017.1 -
18/03:00pm 26.1 - - - - E 22 24 12 13 1017.1 1017.0 -
18/02:30pm 26.1 - - - - E 24 28 13 15 1017.2 1017.1 -
18/02:00pm 26.1 - - - - E 20 24 11 13 1017.4 1017.3 -
18/01:30pm 25.6 - - - - E 26 33 14 18 1017.5 1017.4 -
18/01:00pm 26.0 - - - - E 24 28 13 15 1017.9 1017.8 -
18/12:30pm 26.4 - - - - E 26 30 14 16 1018.4 1018.3 -
18/12:00pm 26.4 - - - - E 26 32 14 17 1018.8 1018.7 -
18/11:30am 26.4 - - - - E 28 33 15 18 1019.1 1019.0 -
18/11:00am 26.1 - - - - E 30 33 16 18 1019.5 1019.4 -
18/10:30am 26.2 - - - - E 30 37 16 20 1019.6 1019.5 -
18/10:00am 26.0 - - - - E 28 33 15 18 1019.9 1019.8 -
18/09:30am 25.9 - - - - E 35 41 19 22 1019.8 1019.7 -
18/09:00am 25.8 - - - - E 33 39 18 21 1019.8 1019.7 -
18/08:30am 25.6 - - - - E 30 37 16 20 1019.5 1019.4 -
18/08:00am 24.7 - - - - E 19 24 10 13 1019.6 1019.5 -
18/07:30am 24.2 - - - - ESE 17 22 9 12 1019.2 1019.1 -
18/06:30am 22.8 - - - - ESE 32 39 17 21 1018.9 1018.8 -
18/06:00am 22.9 - - - - ENE 44 54 24 29 1018.2 1018.1 -
18/05:59am 22.9 - - - - ENE 44 54 24 29 1018.2 1018.1 -
18/05:30am 22.7 - - - - E 28 35 15 19 1018.4 1018.3 -
18/05:00am 23.6 - - - - E 37 46 20 25 1017.8 1017.7 -
18/04:30am 24.1 - - - - E 39 48 21 26 1017.5 1017.4 -
18/04:00am 25.2 - - - - E 30 33 16 18 1017.8 1017.7 -
18/03:30am 25.0 - - - - E 30 35 16 19 1017.6 1017.5 -
18/03:00am 25.1 - - - - E 32 37 17 20 1017.8 1017.7 -
18/02:30am 25.3 - - - - E 30 33 16 18 1018.0 1017.9 -
18/02:00am 25.2 - - - - E 37 43 20 23 1018.0 1017.9 -
18/01:30am 25.2 - - - - E 37 44 20 24 1018.1 1018.0 -
18/01:00am 23.8 - - - - E 33 48 18 26 1018.2 1018.1 -
18/12:56am 24.1 - - - - E 33 48 18 26 1018.2 1018.1 -
18/12:30am 24.8 - - - - ESE 30 35 16 19 1018.6 1018.5 -
18/12:00am 24.7 - - - - E 35 41 19 22 1018.5 1018.4 -
 
Date/Time
EST
Temp
°C
App
Temp
°C
Dew
Point
Rel
Hum
%
Delta-T
°C
Wind Press
QNH
hPa
Press
MSL
hPa
Rain
since 9 am
mm
Dir
 
Spd
km/h
Gust
km/h
Spd
kts
Gust
kts
17/11:30pm 25.0 - - - - E 39 50 21 27 1018.7 1018.6 -
17/11:00pm 25.0 - - - - E 33 41 18 22 1019.1 1019.0 -
17/10:32pm 24.3 - - - - E 37 57 20 31 1019.0 1018.9 -
17/10:30pm 24.7 - - - - E 33 43 18 23 1019.3 1019.2 -
17/10:00pm 24.6 - - - - E 37 54 20 29 1019.0 1018.9 -
17/09:59pm 24.9 - - - - E 35 54 19 29 1019.0 1018.9 -
17/09:30pm 24.7 - - - - E 39 48 21 26 1019.3 1019.2 -
17/09:00pm 25.3 - - - - E 37 41 20 22 1019.1 1019.0 -
17/08:30pm 25.3 - - - - E 37 43 20 23 1019.0 1018.9 -
17/08:00pm 24.7 - - - - ESE 33 39 18 21 1019.1 1019.0 -
17/07:30pm 25.4 - - - - ESE 35 43 19 23 1018.7 1018.6 -
17/07:00pm 25.4 - - - - ESE 35 43 19 23 1018.3 1018.2 -
17/06:30pm 25.4 - - - - ESE 37 41 20 22 1018.2 1018.1 -
17/06:00pm 25.3 - - - - ESE 37 44 20 24 1017.8 1017.7 -
17/05:30pm 25.3 - - - - ESE 33 41 18 22 1017.6 1017.5 -
17/05:00pm 25.1 - - - - SE 30 33 16 18 1017.7 1017.6 -
17/04:30pm 24.9 - - - - ESE 28 37 15 20 1017.8 1017.7 -
17/04:00pm 24.7 - - - - ESE 30 33 16 18 1017.6 1017.5 -
17/03:30pm 24.5 - - - - ESE 33 39 18 21 1017.5 1017.4 -
17/03:00pm 23.7 - - - - E 35 43 19 23 1017.4 1017.3 -
17/02:58pm 23.9 - - - - E 32 43 17 23 1017.5 1017.4 -
17/02:45pm 23.6 - - - - ESE 26 33 14 18 1017.7 1017.6 -
17/02:30pm 23.3 - - - - E 41 50 22 27 1017.7 1017.6 -
17/02:22pm 23.7 - - - - SE 37 50 20 27 1017.4 1017.3 -
17/02:00pm 24.9 - - - - SE 37 41 20 22 1017.8 1017.7 -
17/01:30pm 25.3 - - - - SE 30 33 16 18 1018.3 1018.2 -
17/01:00pm 24.9 - - - - SE 30 33 16 18 1018.7 1018.6 -
17/12:30pm 24.9 - - - - SE 32 35 17 19 1019.2 1019.1 -
17/12:00pm 24.7 - - - - SE 32 41 17 22 1019.8 1019.7 -
17/11:30am 24.5 - - - - SE 32 35 17 19 1020.4 1020.3 -
17/11:00am 24.6 - - - - SSE 28 33 15 18 1020.9 1020.8 -
17/10:30am 24.1 - - - - SE 30 35 16 19 1021.3 1021.2 -
17/10:00am 23.7 - - - - SSE 28 32 15 17 1021.6 1021.5 -
17/09:30am 23.2 - - - - SSE 33 37 18 20 1021.8 1021.7 -
17/09:00am 23.2 - - - - SSE 33 41 18 22 1021.6 1021.5 -
17/08:30am 22.9 - - - - SSE 39 46 21 25 1021.3 1021.2 -
17/08:00am 23.6 - - - - SSE 30 33 16 18 1021.2 1021.1 -
17/07:30am 23.3 - - - - SSE 32 37 17 20 1020.8 1020.7 -
17/07:00am 23.1 - - - - SSE 35 43 19 23 1020.4 1020.3 -
17/06:30am 24.6 - - - - ESE 32 39 17 21 1020.1 1020.0 -
17/06:00am 24.0 - - - - SE 28 33 15 18 1020.0 1019.9 -
17/05:30am 22.5 - - - - SE 41 50 22 27 1019.8 1019.7 -
17/05:00am 23.2 - - - - SSE 37 43 20 23 1019.4 1019.3 -
17/04:30am 22.8 - - - - SSE 39 46 21 25 1019.2 1019.1 -
17/04:00am 23.1 - - - - SSE 32 37 17 20 1019.1 1019.0 -
17/03:30am 22.7 - - - - SSE 32 37 17 20 1019.0 1018.9 -
17/03:00am 22.7 - - - - SSE 30 35 16 19 1019.3 1019.2 -
17/02:30am 23.3 - - - - SSE 35 43 19 23 1019.3 1019.2 -
17/02:00am 23.1 - - - - SSE 39 50 21 27 1019.7 1019.6 -
17/01:30am 24.8 - - - - SE 30 33 16 18 1020.1 1020.0 -
17/01:00am 24.9 - - - - ESE 33 39 18 21 1020.3 1020.2 -
17/12:30am 24.9 - - - - ESE 33 37 18 20 1020.7 1020.6 -
17/12:00am 24.8 - - - - ESE 35 44 19 24 1021.0 1020.9 -
 
Date/Time
EST
Temp
°C
App
Temp
°C
Dew
Point
Rel
Hum
%
Delta-T
°C
Wind Press
QNH
hPa
Press
MSL
hPa
Rain
since 9 am
mm
Dir
 
Spd
km/h
Gust
km/h
Spd
kts
Gust
kts
16/11:30pm 25.0 - - - - ESE 35 41 19 22 1021.0 1020.9 -
16/11:00pm 25.0 - - - - ESE 37 43 20 23 1021.2 1021.1 -
16/10:30pm 24.4 - - - - SE 19 30 10 16 1021.7 1021.6 -
16/10:24pm 23.3 - - - - SE 28 46 15 25 1021.8 1021.7 -
16/10:00pm 24.7 - - - - ESE 35 43 19 23 1021.8 1021.7 -
16/09:30pm 25.1 - - - - ESE 32 43 17 23 1021.9 1021.8 -
16/09:00pm 25.3 - - - - SE 32 35 17 19 1021.8 1021.7 -
16/08:30pm 25.2 - - - - SE 33 37 18 20 1021.6 1021.5 -
16/08:00pm 25.2 - - - - ESE 33 37 18 20 1021.5 1021.4 -
16/07:30pm 25.1 - - - - ESE 33 39 18 21 1021.3 1021.2 -
16/07:00pm 25.1 - - - - ESE 35 43 19 23 1020.8 1020.7 -
16/06:30pm 25.0 - - - - ESE 37 41 20 22 1020.4 1020.3 -
16/06:00pm 25.0 - - - - ESE 35 39 19 21 1020.5 1020.4 -
16/05:30pm 24.8 - - - - ESE 32 37 17 20 1020.3 1020.2 -
16/05:00pm 25.2 - - - - SE 35 43 19 23 1020.2 1020.1 -
16/04:30pm 24.2 - - - - SE 24 28 13 15 1020.3 1020.2 -
16/04:00pm 23.4 - - - - SE 35 44 19 24 1020.3 1020.2 -
16/03:30pm 24.4 - - - - SE 39 44 21 24 1020.3 1020.2 -
16/03:00pm 24.1 - - - - SE 20 35 11 19 1020.1 1020.0 -
16/02:30pm 23.1 - - - - SSE 30 39 16 21 1020.4 1020.3 -
16/02:00pm 22.5 - - - - SE 30 33 16 18 1020.6 1020.5 -
16/01:30pm 21.9 - - - - SE 35 43 19 23 1020.8 1020.7 -
16/01:26pm 22.5 - - - - SE 37 43 20 23 1020.8 1020.7 -
16/01:00pm 23.3 - - - - SSE 37 41 20 22 1020.8 1020.7 -
16/12:30pm 22.9 - - - - SSE 35 39 19 21 1021.4 1021.3 -
16/12:00pm 23.7 - - - - SSE 35 48 19 26 1021.9 1021.8 -
16/11:30am 23.5 - - - - SSE 44 52 24 28 1022.3 1022.2 -
16/11:00am 23.8 - - - - SSE 37 41 20 22 1022.8 1022.7 -
16/10:30am 22.8 - - - - SE 39 44 21 24 1023.3 1023.2 -
16/10:00am 24.0 - - - - SE 37 44 20 24 1023.2 1023.1 -
16/09:30am 24.0 - - - - SSE 33 39 18 21 1023.3 1023.2 -
16/09:00am 23.6 - - - - SSE 33 39 18 21 1023.3 1023.2 -
16/08:30am 23.4 - - - - SSE 33 39 18 21 1023.4 1023.3 -
16/08:00am 23.4 - - - - SSE 33 37 18 20 1023.1 1023.0 -
16/07:30am 23.4 - - - - SSE 33 37 18 20 1023.0 1022.9 -
16/07:00am 23.2 - - - - SSE 33 41 18 22 1022.7 1022.6 -
16/06:30am 22.9 - - - - SSE 33 39 18 21 1022.6 1022.5 -
16/06:00am 22.8 - - - - SSE 35 41 19 22 1022.2 1022.1 -
16/05:30am 23.0 - - - - SSE 33 39 18 21 1022.0 1021.9 -
16/05:00am 23.0 - - - - SSE 33 37 18 20 1021.7 1021.6 -
16/04:30am 23.2 - - - - SSE 32 39 17 21 1021.5 1021.4 -
16/04:00am 23.0 - - - - SSE 32 37 17 20 1021.5 1021.4 -
16/03:30am 23.2 - - - - SSE 33 39 18 21 1021.7 1021.6 -
16/03:00am 22.8 - - - - SSE 33 39 18 21 1021.7 1021.6 -
16/02:30am 23.0 - - - - SSE 33 37 18 20 1021.8 1021.7 -
16/02:00am 23.2 - - - - SSE 33 37 18 20 1022.1 1022.0 -
16/01:30am 23.1 - - - - S 32 35 17 19 1022.3 1022.2 -
16/01:00am 23.3 - - - - SSE 30 35 16 19 1022.6 1022.5 -
16/12:30am 23.8 - - - - SSE 32 37 17 20 1022.8 1022.7 -
16/12:00am 24.4 - - - - SSE 30 35 16 19 1022.8 1022.7 -
 
Date/Time
EST
Temp
°C
App
Temp
°C
Dew
Point
Rel
Hum
%
Delta-T
°C
Wind Press
QNH
hPa
Press
MSL
hPa
Rain
since 9 am
mm
Dir
 
Spd
km/h
Gust
km/h
Spd
kts
Gust
kts
15/11:30pm 24.7 - - - - SE 35 41 19 22 1023.0 1022.9 -
15/11:00pm 24.7 - - - - SE 33 39 18 21 1023.1 1023.0 -
15/10:30pm 24.8 - - - - SE 33 37 18 20 1023.2 1023.1 -
15/10:00pm 24.9 - - - - SE 33 37 18 20 1023.3 1023.2 -

Other Formats:

Comma delimited format used in spreadsheet applications
http://www.bom.gov.au/fwo/IDQ60801/IDQ60801.94378.axf

JavaScript Object Notation format (JSON) in row-major order
http://www.bom.gov.au/fwo/IDQ60801/IDQ60801.94378.json